Time;durP1;ratioP1;P1;durP2;ratioP2;P2;SDS_P1;SDS_P2;PMS_P1;PMS_P2;Temp;Humidity;BMP_temperature;BMP_pressure;BME280_temperature;BME280_humidity;BME280_pressure;Samples;Min_cycle;Max_cycle;Signal;HPM_P1;HPM_P2
2021/06/14 00:02:38;;;;;;;0.10;0.10;;;;;;;8.87;86.31;102612.28;10505980;28;20470;-60
2021/06/14 00:07:39;;;;;;;0.10;0.10;;;;;;;8.78;85.15;102607.59;10524002;28;20477;-57
2021/06/14 00:12:40;;;;;;;0.10;0.10;;;;;;;8.75;88.67;102613.97;10520152;28;20127;-58
2021/06/14 00:17:41;;;;;;;0.10;0.10;;;;;;;8.90;89.28;102624.53;10529219;28;20027;-59
2021/06/14 00:22:43;;;;;;;0.05;0.05;;;;;;;8.89;87.36;102612.19;10520243;28;20347;-61
2021/06/14 00:27:44;;;;;;;0.10;0.10;;;;;;;8.89;89.38;102609.53;10528661;28;20020;-61
2021/06/14 00:32:44;;;;;;;0.10;0.10;;;;;;;9.00;90.03;102618.47;10528256;28;20039;-59
2021/06/14 00:37:44;;;;;;;0.00;0.00;;;;;;;9.07;90.05;102609.16;10508271;28;20024;-60
2021/06/14 00:42:45;;;;;;;0.00;0.00;;;;;;;9.16;90.96;102615.63;10528514;28;20035;-58
2021/06/14 00:47:46;;;;;;;0.10;0.10;;;;;;;9.29;91.15;102607.66;10528283;28;20307;-61
2021/06/14 00:52:47;;;;;;;0.00;0.00;;;;;;;9.37;90.62;102604.47;10527851;28;20023;-61
2021/06/14 00:57:47;;;;;;;0.10;0.10;;;;;;;9.45;90.97;102596.78;10528522;28;20031;-61
2021/06/14 01:02:48;;;;;;;0.10;0.10;;;;;;;9.47;90.62;102595.69;10527383;28;20475;-58
2021/06/14 01:07:48;;;;;;;0.00;0.00;;;;;;;9.45;89.97;102602.97;10515783;28;20033;-60
2021/06/14 01:13:26;;;;;;;0.10;0.10;;;;;;;9.44;90.56;102585.28;10501285;28;20103;-59
2021/06/14 01:18:38;;;;;;;0.05;0.05;;;;;;;9.49;91.24;102585.81;10486009;28;20028;-61
2021/06/14 01:24:20;;;;;;;0.00;0.00;;;;;;;9.55;91.20;102581.03;10524813;28;20172;-60
2021/06/14 01:29:22;;;;;;;0.10;0.10;;;;;;;9.57;90.98;102563.13;10536016;28;20065;-58
2021/06/14 01:34:27;;;;;;;0.10;0.10;;;;;;;9.59;91.23;102559.41;10530783;28;20027;-60
2021/06/14 01:39:31;;;;;;;0.00;0.00;;;;;;;9.57;90.65;102548.03;10523863;28;20024;-59
2021/06/14 01:44:35;;;;;;;0.05;0.05;;;;;;;9.60;90.10;102557.56;10531424;28;20087;-58
2021/06/14 01:49:35;;;;;;;0.10;0.10;;;;;;;9.53;89.71;102535.91;10533774;28;20101;-59
2021/06/14 01:54:37;;;;;;;0.00;0.00;;;;;;;9.48;89.99;102533.59;10533339;28;20077;-59
2021/06/14 01:59:39;;;;;;;0.00;0.00;;;;;;;9.48;90.35;102530.94;10528542;28;20113;-60
2021/06/14 02:04:44;;;;;;;0.00;0.00;;;;;;;9.48;89.99;102528.25;10532985;28;20028;-59
2021/06/14 02:09:45;;;;;;;0.10;0.10;;;;;;;9.42;89.55;102530.50;10495816;28;20132;-59
2021/06/14 02:14:46;;;;;;;0.10;0.10;;;;;;;9.39;89.40;102522.72;10548467;22;20063;-58
2021/06/14 02:19:47;;;;;;;0.00;0.00;;;;;;;9.34;90.01;102527.53;10507333;28;20012;-60
2021/06/14 02:24:48;;;;;;;0.08;0.08;;;;;;;9.31;89.82;102515.31;10494056;28;20025;-60
2021/06/14 02:29:49;;;;;;;0.00;0.00;;;;;;;9.25;90.00;102513.06;10493138;28;20183;-58
2021/06/14 02:34:49;;;;;;;0.00;0.00;;;;;;;8.96;88.26;102508.03;10493931;28;20013;-56
2021/06/14 02:39:51;;;;;;;0.05;0.05;;;;;;;8.85;87.54;102515.91;10507181;28;20552;-59
2021/06/14 02:44:52;;;;;;;0.00;0.00;;;;;;;8.78;87.63;102511.94;10534834;28;20024;-59
2021/06/14 02:49:56;;;;;;;0.03;0.03;;;;;;;8.74;89.08;102513.13;10535065;28;20028;-61
2021/06/14 02:55:00;;;;;;;0.00;0.00;;;;;;;8.66;87.07;102502.19;10523829;28;20016;-60
2021/06/14 03:00:03;;;;;;;0.10;0.10;;;;;;;8.70;88.89;102509.00;10498967;28;20055;-60
2021/06/14 03:05:04;;;;;;;0.00;0.00;;;;;;;8.94;90.11;102509.94;10511094;28;20476;-60
2021/06/14 03:10:06;;;;;;;0.10;0.10;;;;;;;9.16;89.40;102501.31;10494883;28;20016;-61
2021/06/14 03:15:07;;;;;;;0.00;0.00;;;;;;;9.71;87.00;102493.78;10510923;28;20035;-60
2021/06/14 03:20:08;;;;;;;0.00;0.00;;;;;;;10.58;87.70;102491.72;10528060;28;20031;-61
2021/06/14 03:25:09;;;;;;;0.10;0.10;;;;;;;11.47;81.94;102490.03;10533684;28;20301;-61
2021/06/14 03:30:11;;;;;;;0.10;0.10;;;;;;;12.24;78.98;102482.72;10508733;28;20043;-61
2021/06/14 03:35:19;;;;;;;0.10;0.10;;;;;;;13.28;77.00;102475.53;10525700;28;20013;-61
2021/06/14 03:40:20;;;;;;;0.10;0.10;;;;;;;14.23;74.78;102466.03;10490772;28;20368;-61
2021/06/14 03:45:20;;;;;;;0.10;0.10;;;;;;;15.23;72.92;102475.31;10527288;28;20020;-61
2021/06/14 03:50:20;;;;;;;0.10;0.10;;;;;;;16.32;69.96;102456.38;10532252;28;20070;-59
2021/06/14 03:55:21;;;;;;;0.10;0.10;;;;;;;17.35;68.06;102454.56;10519938;28;20016;-60
2021/06/14 04:00:22;;;;;;;0.10;0.10;;;;;;;18.35;63.10;102455.34;10490269;28;20382;-60
2021/06/14 04:05:22;;;;;;;0.10;0.10;;;;;;;19.14;60.78;102452.75;10470447;28;20028;-61
2021/06/14 04:10:22;;;;;;;0.10;0.10;;;;;;;19.86;57.89;102457.91;10492581;28;20013;-60
2021/06/14 04:15:23;;;;;;;0.10;0.10;;;;;;;20.74;56.37;102468.09;10503945;28;20042;-60
2021/06/14 04:20:23;;;;;;;0.10;0.10;;;;;;;21.57;52.57;102462.47;10514358;28;20028;-60
2021/06/14 04:25:24;;;;;;;0.10;0.10;;;;;;;;;;10531675;28;20030;-60
2021/06/14 04:30:24;;;;;;;0.10;0.10;;;;;;;23.25;49.03;102469.78;10530810;28;20076;-61
2021/06/14 04:35:24;;;;;;;0.10;0.10;;;;;;;23.84;46.69;102479.13;10528944;28;20016;-61
2021/06/14 04:40:24;;;;;;;0.10;0.10;;;;;;;24.16;44.86;102464.69;10513256;28;20032;-61
2021/06/14 04:45:25;;;;;;;0.10;0.10;;;;;;;24.56;44.32;102451.06;10514509;28;20039;-61
2021/06/14 04:50:25;;;;;;;0.10;0.10;;;;;;;24.87;43.23;102459.56;10520846;28;20095;-61
2021/06/14 04:55:26;;;;;;;0.10;0.10;;;;;;;25.07;42.97;102452.13;10494707;28;20028;-61
2021/06/14 05:00:27;;;;;;;0.10;0.10;;;;;;;25.58;42.16;102448.53;10496623;28;20383;-60
2021/06/14 05:05:28;;;;;;;0.10;0.10;;;;;;;26.33;41.48;102454.03;10539283;28;20040;-62
2021/06/14 05:10:28;;;;;;;0.10;0.10;;;;;;;26.92;39.52;102451.75;10531546;28;20024;-62
2021/06/14 05:15:29;;;;;;;0.10;0.10;;;;;;;27.16;39.00;102441.78;10519955;28;20097;-62
2021/06/14 05:20:30;;;;;;;0.10;0.10;;;;;;;27.10;37.75;102440.75;10518471;28;20027;-62
2021/06/14 05:25:35;;;;;;;0.10;0.10;;;;;;;26.99;38.50;102436.06;10495917;28;20021;-62
2021/06/14 05:30:35;;;;;;;0.10;0.10;;;;;;;27.05;39.38;102437.03;10495691;28;20020;-62
2021/06/14 05:35:36;;;;;;;0.10;0.10;;;;;;;27.48;38.90;102439.63;10496189;28;20468;-62
2021/06/14 05:40:37;;;;;;;0.10;0.10;;;;;;;27.71;36.95;102433.38;10495189;28;21096;-62
2021/06/14 05:45:37;;;;;;;0.10;0.10;;;;;;;28.05;37.44;102432.88;10496367;28;20452;-62
2021/06/14 05:50:37;;;;;;;0.10;0.10;;;;;;;28.33;36.82;102419.28;10497625;28;20069;-62
2021/06/14 05:55:38;;;;;;;0.10;0.10;;;;;;;28.61;35.30;102421.28;10536915;28;20020;-62
2021/06/14 06:00:38;;;;;;;0.10;0.10;;;;;;;28.83;34.93;102418.72;10536643;28;20077;-62
2021/06/14 06:05:39;;;;;;;0.10;0.10;;;;;;;28.73;34.94;102410.28;10536300;28;20020;-62
2021/06/14 06:10:39;;;;;;;0.10;0.10;;;;;;;28.61;36.06;102393.88;10530305;28;20099;-62
2021/06/14 06:15:39;;;;;;;0.10;0.10;;;;;;;28.55;35.63;102381.13;10502923;28;20016;-62
2021/06/14 06:20:40;;;;;;;0.10;0.10;;;;;;;27.80;36.44;102376.41;10522151;28;20020;-62
2021/06/14 06:25:40;;;;;;;0.10;0.10;;;;;;;27.44;36.68;102363.72;10482051;28;20020;-61
2021/06/14 06:30:41;;;;;;;0.10;0.10;;;;;;;26.67;37.73;102369.81;10491355;28;20028;-62
2021/06/14 06:35:41;;;;;;;0.10;0.10;;;;;;;26.56;39.84;102371.44;10494060;28;20074;-62
2021/06/14 06:40:42;;;;;;;0.10;0.10;;;;;;;26.99;37.75;102372.34;10493366;28;20021;-62
2021/06/14 06:45:43;;;;;;;0.10;0.10;;;;;;;26.82;38.44;102362.06;10492567;28;20016;-62
2021/06/14 06:50:44;;;;;;;0.10;0.10;;;;;;;26.84;36.47;102356.34;10492725;28;20024;-62
2021/06/14 06:55:44;;;;;;;0.10;0.10;;;;;;;26.95;37.82;102355.56;10493936;28;20023;-62
2021/06/14 07:00:48;;;;;;;0.10;0.10;;;;;;;27.33;38.57;102343.47;10498135;28;20150;-62
2021/06/14 07:05:48;;;;;;;0.10;0.10;;;;;;;27.14;36.70;102339.09;10475807;28;20024;-62
2021/06/14 07:10:49;;;;;;;0.10;0.10;;;;;;;27.58;38.06;102339.69;10484392;28;20102;-62
2021/06/14 07:15:49;;;;;;;0.10;0.10;;;;;;;27.77;37.40;102344.00;10513941;28;20032;-62
2021/06/14 07:20:50;;;;;;;0.23;0.17;;;;;;;27.82;38.57;102329.63;10491977;28;20553;-62
2021/06/14 07:25:50;;;;;;;0.10;0.10;;;;;;;28.17;37.54;102324.13;10491683;28;20020;-62
2021/06/14 07:30:50;;;;;;;0.10;0.10;;;;;;;27.57;37.84;102303.28;10496742;28;20036;-63
2021/06/14 07:35:51;;;;;;;0.10;0.10;;;;;;;27.75;39.20;102314.13;10525004;28;20035;-62
2021/06/14 07:40:51;;;;;;;0.10;0.10;;;;;;;28.39;37.03;102294.16;10518732;28;20051;-61
2021/06/14 07:45:53;;;;;;;0.10;0.10;;;;;;;28.79;34.87;102282.34;10533316;28;20047;-62
2021/06/14 07:50:53;;;;;;;;;;;;;;;28.59;36.15;102275.38;10489653;28;20028;-62
2021/06/14 07:55:56;;;;;;;0.10;0.10;;;;;;;28.71;35.97;102271.75;10490954;28;19915;-62
2021/06/14 08:00:56;;;;;;;0.10;0.10;;;;;;;28.74;34.97;102258.41;10490998;28;20039;-62
2021/06/14 08:05:57;;;;;;;0.00;0.00;;;;;;;28.66;36.12;102247.84;10492056;28;20031;-62
2021/06/14 08:10:58;;;;;;;0.10;0.10;;;;;;;28.80;36.90;102246.47;10508216;28;20080;-62
2021/06/14 08:15:59;;;;;;;0.10;0.10;;;;;;;29.06;36.52;102233.19;10581388;22;20264;-64
2021/06/14 08:26:21;;;;;;;0.10;0.10;;;;;;;29.25;35.72;102220.88;10577301;28;20043;-65
2021/06/14 08:31:21;;;;;;;0.10;0.10;;;;;;;29.10;35.52;102210.50;10582642;28;20505;-65
2021/06/14 08:36:21;;;;;;;0.10;0.10;;;;;;;28.91;36.89;102205.50;10584850;28;20058;-66
2021/06/14 08:41:24;;;;;;;0.10;0.10;;;;;;;28.61;35.05;102193.75;10583773;28;20020;-65
2021/06/14 08:46:26;;;;;;;0.10;0.10;;;;;;;28.40;36.26;102192.53;10584317;28;20524;-65
2021/06/14 08:51:27;;;;;;;0.10;0.10;;;;;;;28.47;37.52;102189.66;10584903;28;20411;-65
2021/06/14 08:56:28;;;;;;;0.10;0.10;;;;;;;28.36;37.11;102188.63;10562791;28;20068;-65
2021/06/14 09:01:28;;;;;;;0.00;0.00;;;;;;;28.34;39.08;102174.34;10540164;28;20028;-65
2021/06/14 09:06:29;;;;;;;0.10;0.10;;;;;;;28.21;37.23;102169.13;10541509;28;20464;-65
2021/06/14 09:11:31;;;;;;;0.13;0.13;;;;;;;28.05;37.12;102153.50;10559175;28;20016;-66
2021/06/14 09:16:32;;;;;;;0.10;0.10;;;;;;;27.76;37.19;102157.00;10583164;28;20156;-66
2021/06/14 09:21:32;;;;;;;0.20;0.20;;;;;;;27.89;39.53;102155.91;10574781;28;20492;-64
2021/06/14 09:26:33;;;;;;;0.10;0.10;;;;;;;27.90;37.93;102162.25;10563072;28;20024;-65
2021/06/14 09:31:41;;;;;;;0.00;0.00;;;;;;;27.94;37.39;102147.00;10583732;28;20262;-65
2021/06/14 09:36:55;;;;;;;0.00;0.00;;;;;;;27.77;37.56;102135.94;10582679;28;20106;-66
2021/06/14 09:41:55;;;;;;;0.10;0.10;;;;;;;27.51;39.25;102145.50;10581029;28;20035;-66
2021/06/14 09:47:08;;;;;;;0.10;0.10;;;;;;;27.71;39.70;102153.34;10581687;28;20019;-66
2021/06/14 09:52:22;;;;;;;0.10;0.10;;;;;;;27.92;38.07;102149.13;10582306;28;20024;-66
2021/06/14 09:57:28;;;;;;;0.10;0.10;;;;;;;28.01;36.46;102144.09;10581531;28;20031;-65
2021/06/14 10:02:33;;;;;;;0.10;0.10;;;;;;;27.96;37.87;102134.72;10579873;28;20395;-65
2021/06/14 10:07:45;;;;;;;0.10;0.10;;;;;;;27.79;37.84;102150.25;10581307;27;20053;-66
2021/06/14 10:12:51;;;;;;;0.10;0.10;;;;;;;27.95;38.31;102149.47;10580934;28;20020;-66
2021/06/14 10:17:51;;;;;;;0.10;0.10;;;;;;;28.12;36.71;102151.44;10579517;28;20027;-66
2021/06/14 10:22:55;;;;;;;0.10;0.10;;;;;;;28.17;37.92;102151.53;10580495;28;20039;-65
2021/06/14 10:27:56;;;;;;;0.10;0.10;;;;;;;28.07;38.73;102154.06;10545344;28;20034;-64
2021/06/14 10:32:57;;;;;;;0.10;0.10;;;;;;;27.99;37.69;102149.84;10538058;28;20095;-63
2021/06/14 10:38:02;;;;;;;0.10;0.10;;;;;;;28.32;40.08;102151.81;10538416;28;20433;-66
2021/06/14 10:43:03;;;;;;;0.08;0.08;;;;;;;28.36;36.81;102147.53;10537493;28;20107;-64
2021/06/14 10:48:08;;;;;;;0.10;0.10;;;;;;;28.05;37.21;102143.38;10535729;28;20107;-65
2021/06/14 10:53:08;;;;;;;0.10;0.10;;;;;;;27.88;37.47;102148.78;10534889;28;20028;-65
2021/06/14 10:58:19;;;;;;;0.10;0.10;;;;;;;27.81;37.81;102128.94;10536990;28;20110;-65
2021/06/14 11:03:19;;;;;;;0.10;0.10;;;;;;;27.79;38.53;102120.13;10536620;28;20032;-65
2021/06/14 11:08:22;;;;;;;0.10;0.10;;;;;;;27.79;38.31;102102.88;10536603;28;20020;-65
2021/06/14 11:13:22;;;;;;;;;;;;;;;27.69;38.86;102087.03;10536594;28;20478;-65
2021/06/14 11:18:25;;;;;;;0.10;0.10;;;;;;;27.75;38.25;102091.53;10536128;28;19908;-66
2021/06/14 11:23:30;;;;;;;0.10;0.10;;;;;;;28.01;40.97;102086.59;10534580;28;20020;-65
2021/06/14 11:28:33;;;;;;;0.10;0.10;;;;;;;27.87;38.34;102084.16;10535836;28;20024;-65
2021/06/14 11:33:38;;;;;;;0.10;0.10;;;;;;;27.92;40.29;102086.16;10535731;28;20019;-65
2021/06/14 11:38:38;;;;;;;0.10;0.10;;;;;;;27.85;39.50;102089.03;10535485;28;20020;-65
2021/06/14 11:43:38;;;;;;;0.00;0.00;;;;;;;27.81;40.54;102087.88;10535072;28;20414;-66
2021/06/14 11:48:45;;;;;;;0.10;0.10;;;;;;;27.84;41.28;102092.88;10534980;28;20457;-66
2021/06/14 11:53:55;;;;;;;0.10;0.10;;;;;;;28.01;41.26;102081.09;10530715;28;20027;-65
2021/06/14 11:58:57;;;;;;;0.10;0.10;;;;;;;27.85;37.50;102086.31;10529871;28;20115;-65
2021/06/14 12:03:59;;;;;;;0.10;0.10;;;;;;;27.72;40.45;102078.34;10528748;28;20436;-65
2021/06/14 12:09:26;;;;;;;;;;;;;;;27.87;40.53;102065.00;10534091;28;20363;-65
2021/06/14 12:14:28;;;;;;;0.10;0.10;;;;;;;28.07;39.09;102066.44;10530774;28;19951;-66
2021/06/14 12:19:32;;;;;;;0.00;0.00;;;;;;;27.97;38.16;102054.22;10532997;28;20437;-65
2021/06/14 12:24:34;;;;;;;0.10;0.10;;;;;;;27.74;38.37;102046.91;10533199;28;20103;-66
2021/06/14 12:29:35;;;;;;;0.10;0.10;;;;;;;27.78;39.16;102050.03;10533962;28;20040;-65
2021/06/14 12:34:38;;;;;;;0.10;0.10;;;;;;;27.83;39.67;102044.66;10534096;28;20103;-66
2021/06/14 12:39:39;;;;;;;0.10;0.10;;;;;;;27.65;39.28;102040.19;10534559;28;20382;-66
2021/06/14 12:44:39;;;;;;;0.10;0.10;;;;;;;27.74;38.72;102037.88;10533713;28;20482;-64
2021/06/14 12:49:40;;;;;;;0.10;0.10;;;;;;;27.89;40.21;102032.72;10533619;28;20073;-65
2021/06/14 12:54:40;;;;;;;0.10;0.10;;;;;;;28.04;40.57;102017.63;10533522;28;20493;-65
2021/06/14 12:59:41;;;;;;;0.10;0.10;;;;;;;27.98;39.02;102012.09;10533443;28;20055;-65
2021/06/14 13:04:42;;;;;;;0.10;0.10;;;;;;;27.94;39.16;102013.63;10534377;28;20291;-65
2021/06/14 13:09:51;;;;;;;0.00;0.00;;;;;;;27.83;40.67;102003.59;10533232;28;20429;-65
2021/06/14 13:14:51;;;;;;;0.10;0.10;;;;;;;27.97;41.60;102015.06;10535103;28;20024;-64
2021/06/14 13:19:51;;;;;;;0.10;0.10;;;;;;;28.07;39.92;102009.78;10540881;28;20028;-65
2021/06/14 13:25:03;;;;;;;0.10;0.10;;;;;;;28.08;38.17;101996.91;10540686;28;20479;-65
2021/06/14 13:30:05;;;;;;;0.10;0.10;;;;;;;27.91;39.58;101978.53;10541149;28;20094;-65
2021/06/14 13:35:06;;;;;;;0.00;0.00;;;;;;;27.84;40.72;101982.50;10541117;28;20086;-65
2021/06/14 13:40:29;;;;;;;0.10;0.10;;;;;;;27.88;39.85;101973.56;10539228;28;20681;-65
2021/06/14 13:45:38;;;;;;;0.10;0.10;;;;;;;27.85;41.32;101976.78;10539777;28;20048;-63
2021/06/14 13:50:45;;;;;;;0.10;0.10;;;;;;;27.92;39.89;101960.19;10539659;28;20421;-65
2021/06/14 13:55:52;;;;;;;0.10;0.10;;;;;;;27.96;40.35;101961.38;10535835;28;20027;-65
2021/06/14 14:00:52;;;;;;;0.10;0.10;;;;;;;28.01;39.87;101963.34;10535707;28;20426;-65
2021/06/14 14:05:53;;;;;;;0.00;0.00;;;;;;;28.15;40.21;101960.03;10539489;28;20028;-64
2021/06/14 14:10:53;;;;;;;0.10;0.10;;;;;;;28.23;40.79;101955.22;10538985;28;20455;-64
2021/06/14 14:15:54;;;;;;;0.10;0.10;;;;;;;28.19;41.70;101947.53;10506766;22;20123;-63
2021/06/14 14:20:55;;;;;;;0.10;0.10;;;;;;;28.16;38.38;101944.44;10495844;28;20041;-63
2021/06/14 14:25:56;;;;;;;0.10;0.10;;;;;;;28.11;39.21;101933.41;10495474;28;20320;-63
2021/06/14 14:30:58;;;;;;;0.10;0.10;;;;;;;28.09;38.23;101927.34;10454189;28;20839;-62
2021/06/14 14:36:06;;;;;;;0.10;0.10;;;;;;;28.17;37.47;101918.72;10460854;28;20052;-62
2021/06/14 14:41:10;;;;;;;0.10;0.10;;;;;;;28.21;38.77;101917.13;10453814;28;20255;-63
2021/06/14 14:46:11;;;;;;;0.10;0.10;;;;;;;28.12;37.96;101907.66;10454540;28;20387;-61
2021/06/14 14:51:12;;;;;;;0.10;0.10;;;;;;;27.97;37.97;101900.06;10451838;28;20013;-62
2021/06/14 14:56:12;;;;;;;0.10;0.10;;;;;;;28.01;38.41;101892.16;10453061;28;20398;-62
2021/06/14 15:01:13;;;;;;;0.10;0.10;;;;;;;28.04;39.58;101900.69;10451524;28;20020;-63
2021/06/14 15:06:13;;;;;;;0.10;0.10;;;;;;;27.88;37.47;101899.63;10489473;28;20025;-62
2021/06/14 15:11:13;;;;;;;0.10;0.10;;;;;;;27.91;39.51;101885.44;10462977;28;20027;-62
2021/06/14 15:16:14;;;;;;;0.10;0.10;;;;;;;27.87;38.86;101889.78;10452431;28;20063;-63
2021/06/14 15:21:16;;;;;;;0.10;0.10;;;;;;;27.75;37.86;101886.22;10451631;28;20545;-63
2021/06/14 15:26:20;;;;;;;0.10;0.10;;;;;;;27.65;38.15;101883.34;10452486;28;20356;-63
2021/06/14 15:31:24;;;;;;;0.10;0.10;;;;;;;27.60;38.95;101873.13;10457333;28;20020;-62
2021/06/14 15:36:26;;;;;;;0.10;0.10;;;;;;;27.56;39.34;101879.38;10454060;28;20017;-63
2021/06/14 15:41:28;;;;;;;0.10;0.10;;;;;;;27.56;40.20;101879.38;10449921;28;20032;-64
2021/06/14 15:46:29;;;;;;;0.10;0.10;;;;;;;27.44;39.15;101863.03;10451487;28;20094;-63
2021/06/14 15:51:29;;;;;;;0.10;0.10;;;;;;;27.39;39.13;101854.72;10450634;28;20036;-63
2021/06/14 15:56:30;;;;;;;0.10;0.10;;;;;;;27.19;38.53;101852.44;10453122;28;20410;-63
2021/06/14 16:01:31;;;;;;;0.10;0.10;;;;;;;27.13;40.21;101851.47;10450491;28;20025;-67
2021/06/14 16:06:32;;;;;;;0.10;0.10;;;;;;;27.08;39.67;101851.38;10449661;28;20557;-64
2021/06/14 16:11:32;;;;;;;0.10;0.10;;;;;;;26.91;39.67;101855.97;10433639;28;20022;-64
2021/06/14 16:16:33;;;;;;;0.10;0.10;;;;;;;26.27;45.96;101861.44;10427636;28;20392;-64
2021/06/14 16:21:33;;;;;;;0.10;0.10;;;;;;;25.58;47.53;101859.25;10409738;28;20018;-63
2021/06/14 16:26:33;;;;;;;0.10;0.10;;;;;;;25.08;49.21;101865.81;10413591;28;20036;-63
2021/06/14 16:31:34;;;;;;;0.10;0.10;;;;;;;24.89;48.78;101866.91;10409502;28;20022;-64
2021/06/14 16:36:38;;;;;;;0.10;0.10;;;;;;;24.61;49.78;101867.50;10430545;28;20021;-63
2021/06/14 16:41:39;;;;;;;0.10;0.10;;;;;;;24.39;51.46;101870.59;10424562;28;20025;-63
2021/06/14 16:46:40;;;;;;;0.10;0.10;;;;;;;24.15;50.26;101863.34;10408609;28;20033;-64
2021/06/14 16:51:42;;;;;;;0.10;0.10;;;;;;;24.09;49.96;101867.78;10418162;28;20021;-64
2021/06/14 16:56:43;;;;;;;0.10;0.10;;;;;;;23.82;49.26;101869.88;10416013;28;20121;-63
2021/06/14 17:01:46;;;;;;;0.10;0.10;;;;;;;23.53;50.73;101870.50;10415237;28;20537;-62
2021/06/14 17:06:47;;;;;;;0.08;0.08;;;;;;;23.45;50.75;101871.63;10420639;28;20025;-63
2021/06/14 17:11:48;;;;;;;0.00;0.00;;;;;;;23.39;51.68;101878.78;10414434;28;20377;-64
2021/06/14 17:16:49;;;;;;;0.10;0.10;;;;;;;23.23;51.58;101871.13;10412939;28;20034;-63
2021/06/14 17:21:50;;;;;;;0.10;0.10;;;;;;;23.17;51.26;101872.00;10434874;28;20360;-63
2021/06/14 17:26:50;;;;;;;0.10;0.10;;;;;;;22.84;53.82;101875.69;10455724;28;20472;-63
2021/06/14 17:31:51;;;;;;;0.10;0.10;;;;;;;22.45;54.78;101874.75;10456265;28;20031;-63
2021/06/14 17:36:51;;;;;;;0.05;0.05;;;;;;;22.15;55.57;101877.91;10462298;28;20104;-64
2021/06/14 17:41:52;;;;;;;0.10;0.10;;;;;;;21.93;57.12;101879.16;10456658;28;20025;-64
2021/06/14 17:46:56;;;;;;;0.10;0.10;;;;;;;21.78;58.08;101879.38;10456925;28;20041;-64
2021/06/14 17:51:56;;;;;;;0.10;0.10;;;;;;;21.57;57.20;101871.44;10437296;28;20496;-63
2021/06/14 17:56:57;;;;;;;0.10;0.10;;;;;;;21.34;58.05;101883.44;10455046;28;20029;-64
2021/06/14 18:01:58;;;;;;;0.10;0.10;;;;;;;21.16;59.11;101888.63;10454244;28;20024;-64
2021/06/14 18:06:59;;;;;;;0.10;0.10;;;;;;;20.96;60.79;101883.13;10455308;28;20108;-63
2021/06/14 18:12:00;;;;;;;0.10;0.10;;;;;;;20.77;61.81;101880.16;10461046;28;20104;-63
2021/06/14 18:17:02;;;;;;;0.10;0.10;;;;;;;20.58;63.41;101884.41;10455022;28;20120;-64
2021/06/14 18:22:03;;;;;;;0.10;0.10;;;;;;;20.50;63.13;101878.28;10462731;28;20024;-63
2021/06/14 18:27:04;;;;;;;0.10;0.10;;;;;;;20.46;63.30;101882.44;10496228;28;20032;-62
2021/06/14 18:32:04;;;;;;;0.10;0.10;;;;;;;20.41;63.35;101876.78;10495360;28;20021;-63
2021/06/14 18:37:05;;;;;;;0.10;0.10;;;;;;;20.31;63.39;101879.84;10456620;28;20025;-63
2021/06/14 18:42:08;;;;;;;0.10;0.10;;;;;;;20.23;64.45;101886.25;10453653;28;20021;-63
2021/06/14 18:47:09;;;;;;;0.10;0.10;;;;;;;20.11;64.88;101888.66;10454440;28;20033;-60
2021/06/14 18:52:09;;;;;;;0.10;0.10;;;;;;;20.01;66.10;101884.59;10419281;28;20376;-63
2021/06/14 18:57:10;;;;;;;0.10;0.10;;;;;;;19.92;65.94;101896.59;10453621;28;20033;-63
2021/06/14 19:02:10;;;;;;;0.10;0.10;;;;;;;19.80;66.96;101897.13;10452465;28;20468;-60
2021/06/14 19:07:12;;;;;;;0.10;0.10;;;;;;;19.68;66.88;101909.50;10459992;28;20021;-63
2021/06/14 19:12:12;;;;;;;0.10;0.10;;;;;;;19.55;67.88;101903.94;10433186;28;20021;-63
2021/06/14 19:17:13;;;;;;;0.10;0.10;;;;;;;19.37;67.88;101905.22;10452756;28;20028;-63
2021/06/14 19:22:13;;;;;;;0.10;0.10;;;;;;;19.21;68.28;101903.56;10458123;28;20017;-61
2021/06/14 19:27:13;;;;;;;0.10;0.10;;;;;;;19.08;68.47;101908.81;10452304;28;20443;-61
2021/06/14 19:32:14;;;;;;;0.10;0.10;;;;;;;18.92;69.77;101899.03;10451984;28;20040;-62
2021/06/14 19:37:18;;;;;;;0.10;0.10;;;;;;;18.77;70.85;101907.16;10453113;28;20271;-63
2021/06/14 19:42:18;;;;;;;;;;;;;;;18.65;71.33;101918.59;10451826;28;20017;-61
2021/06/14 19:47:19;;;;;;;0.10;0.10;;;;;;;18.49;71.68;101920.41;10451980;28;19913;-62
2021/06/14 19:52:19;;;;;;;0.10;0.10;;;;;;;18.35;72.39;101926.63;10451016;28;20021;-62
2021/06/14 19:57:20;;;;;;;0.10;0.10;;;;;;;18.22;73.47;101932.66;10451422;28;20403;-62
2021/06/14 20:02:21;;;;;;;0.10;0.10;;;;;;;18.10;74.43;101937.66;10450315;28;20032;-63
2021/06/14 20:07:36;;;;;;;0.10;0.10;;;;;;;17.98;74.60;101941.81;10463025;28;20387;-63
2021/06/14 20:12:36;;;;;;;0.10;0.10;;;;;;;17.87;75.99;101943.06;10482339;28;20058;-60
2021/06/14 20:17:37;;;;;;;0.10;0.10;;;;;;;17.78;76.82;101951.41;10458125;28;20025;-63
2021/06/14 20:22:39;;;;;;;0.10;0.10;;;;;;;17.65;77.39;101947.41;10450076;28;20078;-62
2021/06/14 20:27:42;;;;;;;0.10;0.10;;;;;;;17.55;77.93;101960.28;10450514;28;20027;-62
2021/06/14 20:32:45;;;;;;;0.10;0.10;;;;;;;17.46;78.40;101961.34;10455947;28;20029;-62
2021/06/14 20:37:45;;;;;;;0.10;0.10;;;;;;;17.37;78.87;101965.94;10450280;28;20107;-63
2021/06/14 20:42:46;;;;;;;0.07;0.07;;;;;;;17.31;79.39;101969.31;10465131;28;20124;-62
2021/06/14 20:47:46;;;;;;;0.10;0.10;;;;;;;17.26;79.63;101976.25;10491547;28;20353;-63
2021/06/14 20:52:47;;;;;;;0.10;0.10;;;;;;;17.21;80.48;101976.75;10456184;28;20025;-63
2021/06/14 20:57:47;;;;;;;0.10;0.10;;;;;;;17.13;81.01;101972.28;10449917;28;20040;-63
2021/06/14 21:02:47;;;;;;;0.10;0.10;;;;;;;17.08;81.93;101985.41;10471942;28;20025;-63
2021/06/14 21:07:48;;;;;;;0.10;0.10;;;;;;;16.99;82.38;101981.06;10491171;28;20282;-63
2021/06/14 21:12:49;;;;;;;0.10;0.10;;;;;;;16.93;82.70;101989.84;10472733;28;20267;-63
2021/06/14 21:17:49;;;;;;;0.10;0.10;;;;;;;16.86;82.74;101991.53;10456274;28;20021;-63
2021/06/14 21:22:49;;;;;;;0.10;0.10;;;;;;;16.80;83.62;101993.06;10447312;28;20017;-62
2021/06/14 21:27:50;;;;;;;0.10;0.10;;;;;;;16.75;84.03;101993.56;10449630;28;20298;-62
2021/06/14 21:32:50;;;;;;;0.10;0.10;;;;;;;16.68;83.85;101989.00;10436195;28;20032;-62
2021/06/14 21:37:50;;;;;;;0.10;0.10;;;;;;;16.62;84.22;101993.22;10421363;28;20017;-63
2021/06/14 21:42:51;;;;;;;0.10;0.10;;;;;;;16.57;84.01;102000.97;10429645;28;20021;-62
2021/06/14 21:47:51;;;;;;;0.10;0.10;;;;;;;16.52;84.04;102006.00;10413026;28;20074;-62
2021/06/14 21:52:52;;;;;;;0.10;0.10;;;;;;;16.45;83.92;102005.84;10423717;28;20013;-63
2021/06/14 21:57:52;;;;;;;0.20;0.20;;;;;;;16.38;84.08;102004.03;10412954;28;20033;-63
2021/06/14 22:02:52;;;;;;;0.10;0.10;;;;;;;16.29;84.43;102009.41;10413918;28;20079;-62
2021/06/14 22:07:53;;;;;;;0.10;0.10;;;;;;;16.25;84.17;102008.03;10431763;28;20044;-63
2021/06/14 22:12:54;;;;;;;0.10;0.10;;;;;;;16.19;85.44;102011.41;10411872;28;20334;-63
2021/06/14 22:17:54;;;;;;;0.10;0.10;;;;;;;16.16;85.35;102000.13;10450306;28;20112;-63
2021/06/14 22:22:55;;;;;;;0.10;0.10;;;;;;;16.14;85.00;102002.97;10441028;28;20029;-63
2021/06/14 22:27:55;;;;;;;0.20;0.20;;;;;;;16.09;85.22;101999.16;10445689;28;20041;-63
2021/06/14 22:32:56;;;;;;;0.10;0.10;;;;;;;16.07;85.19;102010.88;10427859;28;20151;-63
2021/06/14 22:37:56;;;;;;;0.10;0.10;;;;;;;16.05;85.36;102006.69;10449975;28;20025;-61
2021/06/14 22:42:56;;;;;;;0.10;0.10;;;;;;;16.06;85.03;102003.00;10452470;28;20321;-62
2021/06/14 22:47:57;;;;;;;0.10;0.10;;;;;;;16.04;85.00;102003.16;10424980;28;20292;-61
2021/06/14 22:52:57;;;;;;;0.10;0.10;;;;;;;16.00;84.71;102000.97;10445091;28;20023;-61
2021/06/14 22:57:58;;;;;;;0.10;0.10;;;;;;;15.92;84.74;102006.34;10432813;28;20264;-62
2021/06/14 23:02:58;;;;;;;0.10;0.10;;;;;;;15.82;84.45;102004.66;10438222;28;20286;-61
2021/06/14 23:07:58;;;;;;;0.10;0.10;;;;;;;15.75;84.88;102011.66;10413262;28;20484;-61
2021/06/14 23:12:59;;;;;;;0.10;0.10;;;;;;;15.69;85.49;102006.97;10409833;28;20021;-60
2021/06/14 23:18:00;;;;;;;0.10;0.10;;;;;;;15.60;85.20;102007.91;10410135;28;20265;-62